createdAt,value
2022-08-03T00:01:46.864Z,8.97
2022-08-03T00:04:15.471Z,9.50
2022-08-03T00:06:43.817Z,16.83
2022-08-03T00:09:13.948Z,11.63
2022-08-03T00:11:42.694Z,16.57
2022-08-03T00:14:11.354Z,9.90
2022-08-03T00:16:39.880Z,10.07
2022-08-03T00:19:08.281Z,10.97
2022-08-03T00:21:36.759Z,12.00
2022-08-03T00:24:05.359Z,17.17
2022-08-03T00:26:35.240Z,13.57
2022-08-03T00:29:03.647Z,9.43
2022-08-03T00:31:51.521Z,15.07
2022-08-03T00:34:34.596Z,13.77
2022-08-03T00:37:08.690Z,11.53
2022-08-03T00:39:37.171Z,15.57
2022-08-03T00:42:06.998Z,10.43
2022-08-03T00:44:40.890Z,11.17
2022-08-03T00:47:10.294Z,9.07
2022-08-03T00:49:38.809Z,15.70
2022-08-03T00:52:09.791Z,12.23
2022-08-03T00:54:38.315Z,13.23
2022-08-03T00:57:08.151Z,15.57
2022-08-03T00:59:38.124Z,17.07
2022-08-03T01:02:06.582Z,10.47
2022-08-03T01:04:34.978Z,9.83
2022-08-03T01:07:05.814Z,13.03
2022-08-03T01:09:40.250Z,11.60
2022-08-03T01:12:12.822Z,11.80
2022-08-03T01:14:43.557Z,10.83
2022-08-03T01:17:13.260Z,14.13
2022-08-03T01:19:43.852Z,18.67
2022-08-03T01:22:23.363Z,13.57
2022-08-03T01:24:52.736Z,14.80
2022-08-03T01:27:23.177Z,16.17
2022-08-03T01:29:58.212Z,10.90
2022-08-03T01:32:58.669Z,12.90
2022-08-03T01:35:16.322Z,12.87
2022-08-03T01:37:45.615Z,12.83
2022-08-03T01:40:14.512Z,15.23
2022-08-03T01:42:43.088Z,10.87
2022-08-03T01:45:13.857Z,8.27
2022-08-03T01:47:42.262Z,10.97
2022-08-03T01:50:10.973Z,11.63
2022-08-03T01:52:39.830Z,12.20
2022-08-03T01:55:08.781Z,11.10
2022-08-03T01:58:05.837Z,6.40
2022-08-03T02:00:27.137Z,10.73
2022-08-03T02:02:55.450Z,6.33
2022-08-03T02:05:23.832Z,11.30
2022-08-03T02:07:52.192Z,9.23
2022-08-03T02:10:34.345Z,9.50
2022-08-03T02:13:04.077Z,12.30
2022-08-03T02:15:33.845Z,12.47
2022-08-03T02:18:02.222Z,5.63
2022-08-03T02:20:33.039Z,12.40
2022-08-03T02:23:01.403Z,9.30
2022-08-03T02:25:29.742Z,15.30
2022-08-03T02:27:58.606Z,15.20
2022-08-03T02:30:27.283Z,11.63
2022-08-03T02:32:57.547Z,10.23
2022-08-03T02:35:26.538Z,12.17
2022-08-03T02:37:55.203Z,11.37
2022-08-03T02:40:23.615Z,10.10
2022-08-03T02:42:53.019Z,10.27
2022-08-03T02:45:21.365Z,10.67
2022-08-03T02:47:53.986Z,8.83
2022-08-03T02:50:24.732Z,13.43
2022-08-03T02:52:53.323Z,11.60
2022-08-03T02:55:21.819Z,11.73
2022-08-03T02:57:50.162Z,8.53
2022-08-03T03:00:27.379Z,15.67
2022-08-03T03:02:56.841Z,14.93
2022-08-03T03:05:56.153Z,12.60
2022-08-03T03:08:17.974Z,15.03
2022-08-03T03:10:49.030Z,8.33
2022-08-03T03:13:23.778Z,10.43
2022-08-03T03:16:07.812Z,14.73
2022-08-03T03:18:36.266Z,14.77
2022-08-03T03:21:06.449Z,9.23
2022-08-03T03:23:34.919Z,12.00
2022-08-03T03:26:03.258Z,13.03
2022-08-03T03:28:31.767Z,11.43
2022-08-03T03:31:00.121Z,10.93
2022-08-03T03:33:28.785Z,8.27
2022-08-03T03:35:57.208Z,10.03
2022-08-03T03:38:26.904Z,14.17
2022-08-03T03:40:55.232Z,17.27
2022-08-03T03:43:24.177Z,11.83
2022-08-03T03:45:53.627Z,14.27
2022-08-03T03:48:22.020Z,14.77
2022-08-03T03:50:50.587Z,11.50
2022-08-03T03:53:18.946Z,10.37
2022-08-03T03:55:57.847Z,7.00
2022-08-03T03:58:31.072Z,12.97
2022-08-03T04:00:59.575Z,14.17
2022-08-03T04:03:28.019Z,11.63
2022-08-03T04:06:13.883Z,12.13
2022-08-03T04:09:14.336Z,10.37
2022-08-03T04:11:45.677Z,12.13
2022-08-03T04:14:16.797Z,14.60
2022-08-03T04:16:46.513Z,12.03
2022-08-03T04:19:21.055Z,11.60
2022-08-03T04:21:51.935Z,11.27
2022-08-03T04:24:20.267Z,13.07
2022-08-03T04:26:52.804Z,10.63
2022-08-03T04:29:21.357Z,13.50
2022-08-03T04:31:49.718Z,21.43
2022-08-03T04:34:18.141Z,15.47
2022-08-03T04:36:49.685Z,10.30
2022-08-03T04:39:20.143Z,14.97
2022-08-03T04:42:04.297Z,11.33
2022-08-03T04:44:37.760Z,13.17
2022-08-03T04:47:06.178Z,14.20
2022-08-03T04:49:34.653Z,18.27
2022-08-03T04:52:03.062Z,11.00
2022-08-03T04:54:31.450Z,19.20
2022-08-03T04:57:01.693Z,11.13
2022-08-03T04:59:30.141Z,17.70
2022-08-03T05:01:58.599Z,20.20
2022-08-03T05:04:26.957Z,13.47
2022-08-03T05:06:55.313Z,12.10
2022-08-03T05:09:49.700Z,19.77
2022-08-03T05:12:14.234Z,17.87
2022-08-03T05:14:42.876Z,13.23
2022-08-03T05:17:11.217Z,12.80
2022-08-03T05:19:39.637Z,12.93
2022-08-03T05:22:08.005Z,12.93
2022-08-03T05:24:36.388Z,12.90
2022-08-03T05:27:04.763Z,9.67
2022-08-03T05:29:34.456Z,16.10
2022-08-03T05:32:16.518Z,12.17
2022-08-03T05:34:45.087Z,17.70
2022-08-03T05:37:13.593Z,15.13
2022-08-03T05:39:41.920Z,13.73
2022-08-03T05:42:10.698Z,13.70
2022-08-03T05:44:40.425Z,17.37
2022-08-03T05:47:09.645Z,13.53
2022-08-03T05:49:38.152Z,16.80
2022-08-03T05:52:10.169Z,17.50
2022-08-03T05:54:56.107Z,12.00
2022-08-03T05:57:26.050Z,11.43
2022-08-03T05:59:58.988Z,14.13
2022-08-03T06:02:27.460Z,19.40
2022-08-03T06:04:55.883Z,15.60
2022-08-03T06:07:24.266Z,16.67
2022-08-03T06:10:35.045Z,12.73
2022-08-03T06:12:41.401Z,18.07
2022-08-03T06:15:11.880Z,20.07
2022-08-03T06:17:47.201Z,19.77
2022-08-03T06:20:15.533Z,14.63
2022-08-03T06:22:50.536Z,14.73
2022-08-03T06:25:21.390Z,23.13
2022-08-03T06:27:49.837Z,19.23
2022-08-03T06:30:21.431Z,25.80
2022-08-03T06:32:51.722Z,19.80
2022-08-03T06:35:20.767Z,12.77
2022-08-03T06:37:49.387Z,18.57
2022-08-03T06:40:21.862Z,20.90
2022-08-03T06:42:52.892Z,20.90
2022-08-03T06:45:22.711Z,18.20
2022-08-03T06:47:52.435Z,18.37
2022-08-03T06:50:24.288Z,17.67
2022-08-03T06:52:54.463Z,19.27
2022-08-03T06:55:22.841Z,20.00
2022-08-03T06:57:51.227Z,21.03
2022-08-03T07:00:19.704Z,19.90
2022-08-03T07:02:49.376Z,15.83
2022-08-03T07:05:20.841Z,19.00
2022-08-03T07:07:49.385Z,19.13
2022-08-03T07:10:17.706Z,23.53
2022-08-03T07:12:55.967Z,15.97
2022-08-03T07:15:55.857Z,17.93
2022-08-03T07:18:14.756Z,18.30
2022-08-03T07:20:43.239Z,21.97
2022-08-03T07:23:17.553Z,16.93
2022-08-03T07:25:48.055Z,22.53
2022-08-03T07:28:16.507Z,17.57
2022-08-03T07:30:45.012Z,20.47
2022-08-03T07:33:17.902Z,18.20
2022-08-03T07:35:46.280Z,19.23
2022-08-03T07:38:14.688Z,15.93
2022-08-03T07:40:46.140Z,18.20
2022-08-03T07:43:14.763Z,18.50
2022-08-03T07:45:43.144Z,15.03
2022-08-03T07:48:12.605Z,19.27
2022-08-03T07:50:42.530Z,19.80
2022-08-03T07:53:13.684Z,15.20
2022-08-03T07:55:42.453Z,21.03
2022-08-03T07:58:12.459Z,19.63
2022-08-03T08:00:41.029Z,16.37
2022-08-03T08:03:10.112Z,23.43
2022-08-03T08:05:38.494Z,17.23
2022-08-03T08:08:08.145Z,18.30
2022-08-03T08:10:36.682Z,19.00
2022-08-03T08:13:05.015Z,19.63
2022-08-03T08:15:33.383Z,22.10
2022-08-03T08:18:02.540Z,19.90
2022-08-03T08:20:32.857Z,16.60
2022-08-03T08:23:10.274Z,18.77
2022-08-03T08:25:53.424Z,22.20
2022-08-03T08:28:32.819Z,17.90
2022-08-03T08:31:02.047Z,22.13
2022-08-03T08:33:47.899Z,18.63
2022-08-03T08:36:19.076Z,18.77
2022-08-03T08:38:47.481Z,18.47
2022-08-03T08:41:17.255Z,16.77
2022-08-03T08:43:45.636Z,23.63
2022-08-03T08:46:22.928Z,21.83
2022-08-03T08:48:52.043Z,17.07
2022-08-03T08:51:21.210Z,16.73
2022-08-03T08:53:50.258Z,17.73
2022-08-03T08:56:20.046Z,15.07
2022-08-03T08:58:49.062Z,19.23
2022-08-03T09:01:20.327Z,17.00
2022-08-03T09:03:48.873Z,18.60
2022-08-03T09:06:17.241Z,13.80
2022-08-03T09:08:45.677Z,18.80
2022-08-03T09:11:14.065Z,17.33
2022-08-03T09:13:44.405Z,15.67
2022-08-03T09:16:13.688Z,19.40
2022-08-03T09:18:42.269Z,15.43
2022-08-03T09:21:33.467Z,18.63
2022-08-03T09:24:05.200Z,19.50
2022-08-03T09:26:35.397Z,17.33
2022-08-03T09:29:11.270Z,16.57
2022-08-03T09:31:43.668Z,14.00
2022-08-03T09:34:13.625Z,18.63
2022-08-03T09:36:42.961Z,17.03
2022-08-03T09:39:12.049Z,17.90
2022-08-03T09:41:40.772Z,17.03
2022-08-03T09:44:24.306Z,19.00
2022-08-03T09:46:54.517Z,16.50
2022-08-03T09:49:22.966Z,17.93
2022-08-03T09:52:31.459Z,13.97
2022-08-03T09:54:40.010Z,15.23
2022-08-03T09:57:08.402Z,18.63
2022-08-03T09:59:39.123Z,14.67
2022-08-03T10:02:09.611Z,13.90
2022-08-03T10:04:38.169Z,15.97
2022-08-03T10:07:07.395Z,17.87
2022-08-03T10:09:35.775Z,14.90
2022-08-03T10:12:10.766Z,19.67
2022-08-03T10:14:41.860Z,15.23
2022-08-03T10:17:10.974Z,15.93
2022-08-03T10:19:39.599Z,14.80
2022-08-03T10:22:09.031Z,19.10
2022-08-03T10:24:37.415Z,20.37
2022-08-03T10:27:07.160Z,16.40
2022-08-03T10:29:36.713Z,17.17
2022-08-03T10:32:06.886Z,12.77
2022-08-03T10:34:36.016Z,12.30
2022-08-03T10:37:04.580Z,17.67
2022-08-03T10:39:32.971Z,18.23
2022-08-03T10:42:03.027Z,22.77
2022-08-03T10:44:34.338Z,12.63
2022-08-03T10:47:02.730Z,9.77
2022-08-03T10:49:33.894Z,13.73
2022-08-03T10:52:12.956Z,19.37
2022-08-03T10:55:12.309Z,12.50
2022-08-03T10:57:50.798Z,15.73
2022-08-03T11:00:24.998Z,12.53
2022-08-03T11:03:18.603Z,11.50
2022-08-03T11:05:49.294Z,15.77
2022-08-03T11:08:22.269Z,12.53
2022-08-03T11:10:50.686Z,13.20
2022-08-03T11:13:19.595Z,10.98
2022-08-03T11:15:48.306Z,12.80
2022-08-03T11:18:16.845Z,13.73
2022-08-03T11:20:45.787Z,9.27
2022-08-03T11:23:15.705Z,13.15
2022-08-03T11:26:02.417Z,8.70
2022-08-03T11:28:30.902Z,13.35
2022-08-03T11:30:59.226Z,15.63
2022-08-03T11:33:30.914Z,13.77
2022-08-03T11:36:02.564Z,11.45
2022-08-03T11:38:32.292Z,12.18
2022-08-03T11:41:02.647Z,9.38
2022-08-03T11:43:46.572Z,9.77
2022-08-03T11:46:29.899Z,13.27
2022-08-03T11:49:09.092Z,10.32
2022-08-03T11:51:41.467Z,11.45
2022-08-03T11:54:11.571Z,13.50
2022-08-03T11:56:46.454Z,13.48
2022-08-03T11:59:20.154Z,10.52
2022-08-03T12:01:49.918Z,13.32
2022-08-03T12:04:18.311Z,9.98
2022-08-03T12:06:59.833Z,10.35
2022-08-03T12:09:29.529Z,11.48
2022-08-03T12:12:01.375Z,12.10
2022-08-03T12:14:49.049Z,10.45
2022-08-03T12:17:19.167Z,8.82
2022-08-03T12:19:47.826Z,9.65
2022-08-03T12:22:17.128Z,10.80
2022-08-03T12:24:47.700Z,13.85
2022-08-03T12:27:24.786Z,12.68
2022-08-03T12:29:58.561Z,9.18
2022-08-03T12:32:27.645Z,12.52
2022-08-03T12:35:00.242Z,12.50
2022-08-03T12:37:28.989Z,14.48
2022-08-03T12:40:02.307Z,11.18
2022-08-03T12:42:32.704Z,10.43
2022-08-03T12:45:18.985Z,8.68
2022-08-03T12:47:54.252Z,10.95
2022-08-03T12:50:26.169Z,12.95
2022-08-03T12:52:54.596Z,11.27
2022-08-03T12:55:24.607Z,9.88
2022-08-03T12:57:53.101Z,9.13
2022-08-03T13:00:29.404Z,15.05
2022-08-03T13:03:38.118Z,11.50
2022-08-03T13:05:50.781Z,11.50
2022-08-03T13:08:19.958Z,9.68
2022-08-03T13:10:49.770Z,12.25
2022-08-03T13:13:22.421Z,8.88
2022-08-03T13:15:52.260Z,6.57
2022-08-03T13:18:23.456Z,13.45
2022-08-03T13:20:51.841Z,9.65
2022-08-03T13:23:22.698Z,6.25
2022-08-03T13:25:55.971Z,9.95
2022-08-03T13:28:24.530Z,12.25
2022-08-03T13:30:54.796Z,11.13
2022-08-03T13:33:23.210Z,9.63
2022-08-03T13:35:51.588Z,9.65
2022-08-03T13:38:21.620Z,13.20
2022-08-03T13:40:56.822Z,14.18
2022-08-03T13:43:25.316Z,10.80
2022-08-03T13:45:57.767Z,9.23
2022-08-03T13:48:36.979Z,11.05
2022-08-03T13:51:22.165Z,9.57
2022-08-03T13:53:52.222Z,8.65
2022-08-03T13:56:21.890Z,11.82
2022-08-03T13:58:50.261Z,7.07
2022-08-03T14:01:34.362Z,9.45
2022-08-03T14:04:15.864Z,10.02
2022-08-03T14:06:50.760Z,6.82
2022-08-03T14:09:19.065Z,6.00
2022-08-03T14:12:07.633Z,6.78
2022-08-03T14:14:37.200Z,6.72
2022-08-03T14:17:05.673Z,7.93
2022-08-03T14:19:34.411Z,13.10
2022-08-03T14:22:21.163Z,8.43
2022-08-03T14:24:49.594Z,6.90
2022-08-03T14:27:19.281Z,3.80
2022-08-03T14:29:47.656Z,3.15
2022-08-03T14:32:16.085Z,4.32
2022-08-03T14:34:44.449Z,5.30
2022-08-03T14:37:12.881Z,6.25
2022-08-03T14:42:31.042Z,7.45
2022-08-03T14:45:04.632Z,2.83
2022-08-03T14:47:36.502Z,6.85
2022-08-03T14:50:38.460Z,5.32
2022-08-03T14:53:09.382Z,5.00
2022-08-03T14:55:38.201Z,2.75
2022-08-03T14:58:20.744Z,5.60
2022-08-03T15:00:49.973Z,9.07
2022-08-03T15:03:20.455Z,4.43
2022-08-03T15:05:48.990Z,5.18
2022-08-03T15:08:17.469Z,5.75
2022-08-03T15:10:46.020Z,6.70
2022-08-03T15:13:19.484Z,6.20
2022-08-03T15:15:48.150Z,6.82
2022-08-03T15:18:20.123Z,5.90
2022-08-03T15:20:49.555Z,6.78
2022-08-03T15:23:18.165Z,5.25
2022-08-03T15:26:06.472Z,9.23
2022-08-03T15:28:37.533Z,4.03
2022-08-03T15:31:06.530Z,4.70
2022-08-03T15:33:35.249Z,5.35
2022-08-03T15:36:03.982Z,6.00
2022-08-03T15:38:35.042Z,3.35
2022-08-03T15:41:03.508Z,5.95
2022-08-03T15:43:31.851Z,6.00
2022-08-03T15:46:28.223Z,5.50
2022-08-03T15:48:49.912Z,5.05
2022-08-03T15:51:18.232Z,6.20
2022-08-03T15:53:46.591Z,4.07
2022-08-03T15:56:18.892Z,5.22
2022-08-03T15:59:04.480Z,5.55
2022-08-03T16:01:38.544Z,4.47
2022-08-03T16:04:06.967Z,4.07
2022-08-03T16:06:36.609Z,8.23
2022-08-03T16:09:23.022Z,5.65
2022-08-03T16:11:55.064Z,6.18
2022-08-03T16:14:32.233Z,3.90
2022-08-03T16:17:05.594Z,6.72
2022-08-03T16:19:33.936Z,8.10
2022-08-03T16:22:03.993Z,5.85
2022-08-03T16:24:32.837Z,4.25
2022-08-03T16:27:01.358Z,4.97
2022-08-03T16:29:30.406Z,5.28
2022-08-03T16:31:58.789Z,3.50
2022-08-03T16:34:28.530Z,4.38
2022-08-03T16:36:56.951Z,3.65
2022-08-03T16:39:25.439Z,8.20
2022-08-03T16:42:00.909Z,5.85
2022-08-03T16:44:30.590Z,5.17
2022-08-03T16:46:59.054Z,5.70
2022-08-03T16:49:55.507Z,4.80
2022-08-03T16:52:18.047Z,7.00
2022-08-03T16:54:53.243Z,7.53
2022-08-03T16:57:59.306Z,6.32
2022-08-03T17:00:11.825Z,5.57
2022-08-03T17:02:40.283Z,4.73
2022-08-03T17:05:17.956Z,4.10
2022-08-03T17:07:50.654Z,7.57
2022-08-03T17:10:27.261Z,6.47
2022-08-03T17:12:55.828Z,5.23
2022-08-03T17:15:51.715Z,5.03
2022-08-03T17:18:15.045Z,6.77
2022-08-03T17:20:44.853Z,7.30
2022-08-03T17:23:33.966Z,7.37
2022-08-03T17:26:05.957Z,7.33
2022-08-03T17:28:51.302Z,8.17
2022-08-03T17:31:31.279Z,6.73
2022-08-03T17:34:01.172Z,4.50
2022-08-03T17:36:54.021Z,5.97
2022-08-03T17:39:35.804Z,2.57
2022-08-03T17:42:31.631Z,4.77
2022-08-03T17:44:57.620Z,8.97
2022-08-03T17:47:29.129Z,4.90
2022-08-03T17:50:25.123Z,6.93
2022-08-03T17:53:00.843Z,4.10
2022-08-03T17:55:54.838Z,6.67
2022-08-03T17:58:18.643Z,4.77
2022-08-03T18:02:00.458Z,5.00
2022-08-03T18:03:58.576Z,4.10
2022-08-03T18:06:28.789Z,4.30
2022-08-03T18:09:00.103Z,3.70
2022-08-03T18:11:39.003Z,8.10
2022-08-03T18:14:16.293Z,5.37
2022-08-03T18:16:45.806Z,4.77
2022-08-03T18:19:14.397Z,3.10
2022-08-03T18:22:02.983Z,5.00
2022-08-03T18:24:33.352Z,7.43
2022-08-03T18:27:02.576Z,4.60
2022-08-03T18:29:33.224Z,7.20
2022-08-03T18:32:05.288Z,5.27
2022-08-03T18:34:36.088Z,7.73
2022-08-03T18:37:09.659Z,6.70
2022-08-03T18:39:49.923Z,5.77
2022-08-03T18:42:25.758Z,7.10
2022-08-03T18:44:56.187Z,5.33
2022-08-03T18:47:50.633Z,8.50
2022-08-03T18:50:22.518Z,4.77
2022-08-03T18:52:55.536Z,4.87
2022-08-03T18:55:33.217Z,6.80
2022-08-03T18:58:06.190Z,5.63
2022-08-03T19:00:54.127Z,6.57
2022-08-03T19:03:24.275Z,5.93
2022-08-03T19:06:02.616Z,5.90
2022-08-03T19:08:38.814Z,5.77
2022-08-03T19:11:10.822Z,5.97
2022-08-03T19:13:41.480Z,4.70
2022-08-03T19:16:13.550Z,5.10
2022-08-03T19:18:46.954Z,7.73
2022-08-03T19:21:17.849Z,6.67
2022-08-03T19:23:46.945Z,5.97
2022-08-03T19:26:30.274Z,4.70
2022-08-03T19:28:59.814Z,4.47
2022-08-03T19:31:30.988Z,3.93
2022-08-03T19:34:03.370Z,4.33
2022-08-03T19:36:32.762Z,5.50
2022-08-03T19:39:03.224Z,6.67
2022-08-03T19:41:41.981Z,6.90
2022-08-03T19:44:12.162Z,5.60
2022-08-03T19:46:44.208Z,3.57
2022-08-03T19:49:17.479Z,7.87
2022-08-03T19:52:00.615Z,7.80
2022-08-03T19:54:32.607Z,5.43
2022-08-03T19:57:16.033Z,7.10
2022-08-03T19:59:50.151Z,3.80
2022-08-03T20:02:26.835Z,5.70
2022-08-03T20:04:56.140Z,7.07
2022-08-03T20:07:24.585Z,7.17
2022-08-03T20:09:54.556Z,4.03
2022-08-03T20:12:28.016Z,4.30
2022-08-03T20:14:57.128Z,6.70
2022-08-03T20:17:56.521Z,7.03
2022-08-03T20:20:14.371Z,5.73
2022-08-03T20:22:48.076Z,5.70
2022-08-03T20:25:20.803Z,7.20
2022-08-03T20:30:39.772Z,5.30
2022-08-03T20:33:11.540Z,6.63
2022-08-03T20:38:29.098Z,5.63
2022-08-03T20:40:59.125Z,4.47
2022-08-03T20:43:28.986Z,8.77
2022-08-03T20:45:59.415Z,3.50
2022-08-03T20:48:48.704Z,7.73
2022-08-03T20:51:49.682Z,4.70
2022-08-03T20:54:22.449Z,4.10
2022-08-03T20:56:57.606Z,4.87
2022-08-03T20:59:36.837Z,5.83
2022-08-03T21:05:08.644Z,7.57
2022-08-03T21:08:05.812Z,7.60
2022-08-03T21:10:28.505Z,4.77
2022-08-03T21:13:06.882Z,4.60
2022-08-03T21:13:07.897Z,3.80
2022-08-03T21:13:12.468Z,5.40
2022-08-03T21:13:13.049Z,5.47
2022-08-03T21:16:03.132Z,6.60
2022-08-03T21:18:34.032Z,7.17
2022-08-03T21:21:02.339Z,3.47
2022-08-03T21:23:34.917Z,3.73
2022-08-03T21:26:08.774Z,6.67
2022-08-03T21:28:37.061Z,6.83
2022-08-03T21:31:06.795Z,6.90
2022-08-03T21:33:35.109Z,6.87
2022-08-03T21:36:03.985Z,4.63
2022-08-03T21:38:32.799Z,7.67
2022-08-03T21:41:01.439Z,4.73
2022-08-03T21:43:29.807Z,6.47
2022-08-03T21:45:59.890Z,9.87
2022-08-03T21:48:30.052Z,7.47
2022-08-03T21:50:58.486Z,4.97
2022-08-03T21:54:00.313Z,6.33
2022-08-03T21:56:15.871Z,7.00
2022-08-03T21:58:45.533Z,6.10
2022-08-03T22:01:20.203Z,7.10
2022-08-03T22:03:53.872Z,7.00
2022-08-03T22:06:22.523Z,4.17
2022-08-03T22:08:55.414Z,3.10
2022-08-03T22:11:23.713Z,4.20
2022-08-03T22:13:52.168Z,5.50
2022-08-03T22:16:20.564Z,4.70
2022-08-03T22:18:50.194Z,4.67
2022-08-03T22:21:28.168Z,4.20
2022-08-03T22:24:04.933Z,8.40
2022-08-03T22:26:36.402Z,7.83
2022-08-03T22:29:07.934Z,4.50
2022-08-03T22:31:58.439Z,5.73
2022-08-03T22:34:26.703Z,4.00
2022-08-03T22:36:55.244Z,7.37
2022-08-03T22:39:26.096Z,9.27
2022-08-03T22:41:54.554Z,6.10
2022-08-03T22:44:26.026Z,7.00
2022-08-03T22:46:54.755Z,5.43
2022-08-03T22:49:23.168Z,5.87
2022-08-03T22:51:52.892Z,7.90
2022-08-03T22:54:21.269Z,7.53
2022-08-03T22:56:49.794Z,5.13
2022-08-03T22:59:38.849Z,11.07
2022-08-03T23:02:20.366Z,6.07
2022-08-03T23:04:51.395Z,6.33
2022-08-03T23:07:23.397Z,7.70
2022-08-03T23:09:51.992Z,9.40
2022-08-03T23:12:21.472Z,10.93
2022-08-03T23:14:50.620Z,9.63
2022-08-03T23:17:19.148Z,8.63
2022-08-03T23:19:47.827Z,7.83
2022-08-03T23:22:17.103Z,8.57
2022-08-03T23:25:06.394Z,8.93
2022-08-03T23:27:34.908Z,8.80
2022-08-03T23:30:03.814Z,6.60
2022-08-03T23:32:32.244Z,5.40
2022-08-03T23:35:18.775Z,7.40
2022-08-03T23:38:04.551Z,5.90
2022-08-03T23:40:37.208Z,7.57
2022-08-03T23:43:05.611Z,6.30
2022-08-03T23:45:37.037Z,8.17
2022-08-03T23:48:05.639Z,6.60
2022-08-03T23:50:35.451Z,7.90
2022-08-03T23:53:04.910Z,10.93
2022-08-03T23:55:41.828Z,7.27
2022-08-03T23:58:13.457Z,6.97
